createdAt,value
2023-04-22T00:01:57.389Z,13.85
2023-04-22T00:04:24.257Z,13.81
2023-04-22T00:06:51.417Z,13.78
2023-04-22T00:09:17.973Z,13.89
2023-04-22T00:11:44.435Z,13.82
2023-04-22T00:14:11.197Z,13.79
2023-04-22T00:16:38.498Z,13.95
2023-04-22T00:19:05.847Z,13.86
2023-04-22T00:21:32.682Z,13.76
2023-04-22T00:24:01.480Z,13.79
2023-04-22T00:26:28.036Z,13.78
2023-04-22T00:28:54.468Z,13.83
2023-04-22T00:31:20.972Z,13.80
2023-04-22T00:33:47.532Z,13.82
2023-04-22T00:36:14.069Z,13.95
2023-04-22T00:38:42.498Z,13.78
2023-04-22T00:41:09.478Z,13.70
2023-04-22T00:43:35.932Z,13.64
2023-04-22T00:46:02.984Z,13.54
2023-04-22T00:48:29.844Z,13.74
2023-04-22T00:50:56.293Z,13.91
2023-04-22T00:53:22.750Z,13.89
2023-04-22T00:55:49.218Z,13.85
2023-04-22T00:58:17.749Z,13.93
2023-04-22T01:00:44.273Z,13.98
2023-04-22T01:03:11.993Z,13.95
2023-04-22T01:05:39.254Z,14.01
2023-04-22T01:08:05.809Z,14.10
2023-04-22T01:10:33.572Z,14.10
2023-04-22T01:13:00.181Z,14.15
2023-04-22T01:15:26.763Z,14.18
2023-04-22T01:17:53.683Z,14.06
2023-04-22T01:20:21.730Z,14.05
2023-04-22T01:22:50.579Z,14.08
2023-04-22T01:25:17.240Z,13.97
2023-04-22T01:27:44.194Z,13.97
2023-04-22T01:30:11.460Z,13.98
2023-04-22T01:32:40.118Z,14.06
2023-04-22T01:35:07.382Z,13.91
2023-04-22T01:37:38.726Z,13.75
2023-04-22T01:40:11.289Z,13.98
2023-04-22T01:42:38.201Z,13.92
2023-04-22T01:45:08.113Z,13.92
2023-04-22T01:47:37.369Z,13.86
2023-04-22T01:50:04.443Z,13.89
2023-04-22T01:52:31.198Z,13.85
2023-04-22T01:54:58.312Z,13.79
2023-04-22T01:57:24.794Z,13.86
2023-04-22T01:59:51.259Z,13.87
2023-04-22T02:02:17.802Z,13.85
2023-04-22T02:04:44.424Z,13.79
2023-04-22T02:07:11.043Z,13.75
2023-04-22T02:09:37.754Z,13.70
2023-04-22T02:12:07.194Z,13.70
2023-04-22T02:14:33.657Z,13.55
2023-04-22T02:17:02.226Z,13.51
2023-04-22T02:19:29.011Z,13.44
2023-04-22T02:21:55.786Z,13.40
2023-04-22T02:24:22.320Z,13.30
2023-04-22T02:26:49.168Z,13.30
2023-04-22T02:29:16.290Z,13.30
2023-04-22T02:31:42.888Z,13.20
2023-04-22T02:34:09.387Z,13.29
2023-04-22T02:36:36.562Z,13.20
2023-04-22T02:39:03.706Z,13.20
2023-04-22T02:41:30.235Z,13.31
2023-04-22T02:43:56.766Z,13.45
2023-04-22T02:46:23.405Z,13.11
2023-04-22T02:48:49.954Z,13.10
2023-04-22T02:51:16.455Z,13.01
2023-04-22T02:53:43.163Z,12.75
2023-04-22T02:56:10.077Z,12.55
2023-04-22T02:58:36.566Z,12.48
2023-04-22T03:01:03.213Z,12.55
2023-04-22T03:03:29.822Z,12.15
2023-04-22T03:05:58.747Z,12.07
2023-04-22T03:08:25.774Z,12.02
2023-04-22T03:10:52.340Z,11.84
2023-04-22T03:13:18.863Z,11.85
2023-04-22T03:15:45.398Z,11.78
2023-04-22T03:18:11.913Z,11.63
2023-04-22T03:20:40.686Z,11.58
2023-04-22T03:23:07.978Z,11.63
2023-04-22T03:25:36.200Z,11.53
2023-04-22T03:28:04.105Z,11.33
2023-04-22T03:30:30.651Z,11.17
2023-04-22T03:32:57.952Z,11.00
2023-04-22T03:35:24.697Z,11.09
2023-04-22T03:37:51.294Z,11.05
2023-04-22T03:40:17.881Z,10.96
2023-04-22T03:42:44.317Z,10.91
2023-04-22T03:45:14.529Z,11.01
2023-04-22T03:47:44.440Z,11.03
2023-04-22T03:50:14.616Z,10.97
2023-04-22T03:52:44.518Z,10.98
2023-04-22T03:55:13.074Z,10.84
2023-04-22T03:57:39.530Z,10.96
2023-04-22T04:00:06.669Z,10.87
2023-04-22T04:02:33.254Z,10.90
2023-04-22T04:05:00.347Z,10.90
2023-04-22T04:07:27.058Z,10.84
2023-04-22T04:09:53.582Z,10.84
2023-04-22T04:12:20.224Z,10.92
2023-04-22T04:14:46.627Z,10.86
2023-04-22T04:17:16.600Z,10.82
2023-04-22T04:19:46.037Z,10.85
2023-04-22T04:22:12.803Z,10.75
2023-04-22T04:24:44.081Z,10.75
2023-04-22T04:27:14.981Z,10.66
2023-04-22T04:29:42.181Z,10.66
2023-04-22T04:32:09.872Z,10.65
2023-04-22T04:34:37.673Z,10.60
2023-04-22T04:37:04.274Z,10.70
2023-04-22T04:39:30.825Z,10.76
2023-04-22T04:41:58.884Z,10.61
2023-04-22T04:44:28.370Z,10.52
2023-04-22T04:46:55.083Z,10.77
2023-04-22T04:49:21.877Z,11.02
2023-04-22T04:51:48.491Z,11.11
2023-04-22T04:54:17.765Z,11.01
2023-04-22T04:56:46.654Z,10.89
2023-04-22T04:59:13.146Z,10.95
2023-04-22T05:01:39.646Z,11.06
2023-04-22T05:04:06.467Z,11.02
2023-04-22T05:06:33.756Z,11.08
2023-04-22T05:09:00.428Z,11.10
2023-04-22T05:11:27.013Z,11.19
2023-04-22T05:13:53.482Z,11.27
2023-04-22T05:16:20.051Z,11.33
2023-04-22T05:18:51.040Z,11.38
2023-04-22T05:21:20.875Z,11.51
2023-04-22T05:23:50.393Z,11.60
2023-04-22T05:26:17.601Z,11.50
2023-04-22T05:28:44.073Z,11.52
2023-04-22T05:31:10.581Z,11.48
2023-04-22T05:33:37.080Z,11.46
2023-04-22T05:36:03.950Z,11.26
2023-04-22T05:38:31.847Z,11.09
2023-04-22T05:40:58.328Z,11.23
2023-04-22T05:43:24.789Z,11.20
2023-04-22T05:45:51.291Z,11.06
2023-04-22T05:48:17.933Z,11.08
2023-04-22T05:50:48.315Z,11.13
2023-04-22T05:53:17.697Z,11.24
2023-04-22T05:55:48.593Z,11.16
2023-04-22T05:58:17.374Z,11.32
2023-04-22T06:00:43.898Z,11.32
2023-04-22T06:03:10.493Z,11.37
2023-04-22T06:05:37.202Z,11.41
2023-04-22T06:08:03.873Z,11.46
2023-04-22T06:10:30.492Z,11.55
2023-04-22T06:12:57.026Z,11.64
2023-04-22T06:15:23.523Z,11.65
2023-04-22T06:17:50.212Z,11.72
2023-04-22T06:20:17.854Z,11.79
2023-04-22T06:22:47.030Z,11.82
2023-04-22T06:25:13.575Z,11.84
2023-04-22T06:27:40.348Z,11.99
2023-04-22T06:30:07.593Z,11.99
2023-04-22T06:32:34.095Z,12.00
2023-04-22T06:35:00.639Z,12.03
2023-04-22T06:37:27.153Z,12.09
2023-04-22T06:39:53.590Z,12.15
2023-04-22T06:42:19.998Z,12.20
2023-04-22T06:44:47.730Z,12.36
2023-04-22T06:47:14.281Z,12.31
2023-04-22T06:49:41.380Z,12.40
2023-04-22T06:52:08.248Z,12.63
2023-04-22T06:54:34.746Z,12.72
2023-04-22T06:57:01.568Z,12.87
2023-04-22T06:59:30.787Z,12.94
2023-04-22T07:01:57.307Z,13.04
2023-04-22T07:04:23.842Z,13.07
2023-04-22T07:06:50.457Z,13.02
2023-04-22T07:09:17.558Z,13.26
2023-04-22T07:11:44.007Z,13.38
2023-04-22T07:14:10.604Z,13.35
2023-04-22T07:16:38.887Z,13.38
2023-04-22T07:19:06.167Z,13.52
2023-04-22T07:21:33.354Z,13.44
2023-04-22T07:23:59.866Z,13.51
2023-04-22T07:26:26.360Z,13.45
2023-04-22T07:28:52.850Z,13.60
2023-04-22T07:31:19.410Z,13.53
2023-04-22T07:33:49.163Z,13.57
2023-04-22T07:36:19.789Z,13.68
2023-04-22T07:38:49.160Z,13.69
2023-04-22T07:41:16.547Z,13.82
2023-04-22T07:43:43.066Z,13.88
2023-04-22T07:46:09.610Z,13.98
2023-04-22T07:48:36.634Z,14.34
2023-04-22T07:51:03.267Z,14.58
2023-04-22T07:53:29.709Z,14.67
2023-04-22T07:55:56.343Z,14.78
2023-04-22T07:58:22.904Z,14.98
2023-04-22T08:00:49.468Z,15.22
2023-04-22T08:03:17.581Z,15.36
2023-04-22T08:05:44.203Z,15.56
2023-04-22T08:08:11.080Z,15.54
2023-04-22T08:10:37.600Z,15.80
2023-04-22T08:13:04.231Z,15.72
2023-04-22T08:15:31.197Z,15.67
2023-04-22T08:17:58.150Z,15.66
2023-04-22T08:20:25.970Z,15.70
2023-04-22T08:22:57.227Z,15.71
2023-04-22T08:25:23.761Z,15.85
2023-04-22T08:27:51.401Z,15.83
2023-04-22T08:30:18.076Z,15.75
2023-04-22T08:32:44.731Z,15.67
2023-04-22T08:35:11.838Z,15.70
2023-04-22T08:37:38.524Z,15.71
2023-04-22T08:40:05.912Z,15.62
2023-04-22T08:42:33.316Z,15.66
2023-04-22T08:45:02.023Z,15.66
2023-04-22T08:47:29.289Z,15.64
2023-04-22T08:49:56.451Z,15.70
2023-04-22T08:52:22.978Z,15.60
2023-04-22T08:54:50.023Z,15.58
2023-04-22T08:57:20.341Z,15.57
2023-04-22T08:59:48.615Z,15.48
2023-04-22T09:02:22.240Z,15.49
2023-04-22T09:04:51.854Z,15.58
2023-04-22T09:07:24.929Z,15.66
2023-04-22T09:09:52.659Z,15.65
2023-04-22T09:12:19.209Z,15.68
2023-04-22T09:14:47.552Z,15.85
2023-04-22T09:17:31.191Z,15.85
2023-04-22T09:20:02.150Z,15.72
2023-04-22T09:22:36.844Z,15.69
2023-04-22T09:25:17.233Z,15.73
2023-04-22T09:27:43.724Z,15.71
2023-04-22T09:30:10.826Z,15.85
2023-04-22T09:32:37.405Z,15.86
2023-04-22T09:35:04.270Z,15.91
2023-04-22T09:37:42.483Z,15.89
2023-04-22T09:40:20.069Z,15.82
2023-04-22T09:42:58.557Z,15.95
2023-04-22T09:45:33.349Z,16.15
2023-04-22T09:48:03.095Z,16.10
2023-04-22T09:50:29.690Z,16.05
2023-04-22T09:53:01.272Z,16.13
2023-04-22T09:55:30.343Z,15.99
2023-04-22T09:57:57.976Z,15.91
2023-04-22T10:00:28.999Z,16.03
2023-04-22T10:02:55.682Z,15.97
2023-04-22T10:05:22.296Z,16.08
2023-04-22T10:07:48.921Z,15.96
2023-04-22T10:10:18.932Z,15.83
2023-04-22T10:12:49.176Z,15.95
2023-04-22T10:15:19.759Z,16.00
2023-04-22T10:17:52.577Z,16.01
2023-04-22T10:20:21.143Z,15.98
2023-04-22T10:22:52.616Z,16.14
2023-04-22T10:25:26.853Z,16.12
2023-04-22T10:27:55.374Z,16.07
2023-04-22T10:30:32.394Z,16.09
2023-04-22T10:33:20.868Z,15.90
2023-04-22T10:36:16.775Z,15.84
2023-04-22T10:38:55.336Z,15.77
2023-04-22T10:41:26.857Z,15.82
2023-04-22T10:44:02.167Z,15.81
2023-04-22T10:46:37.724Z,15.79
2023-04-22T10:49:09.328Z,15.80
2023-04-22T10:51:47.685Z,15.72
2023-04-22T10:54:28.627Z,15.79
2023-04-22T10:57:05.973Z,15.69
2023-04-22T10:59:34.310Z,15.63
2023-04-22T11:02:02.401Z,15.54
2023-04-22T11:04:29.154Z,15.51
2023-04-22T11:07:27.588Z,15.41
2023-04-22T11:10:06.879Z,15.27
2023-04-22T11:12:39.347Z,15.19
2023-04-22T11:15:07.578Z,15.20
2023-04-22T11:17:35.133Z,15.18
2023-04-22T11:20:02.562Z,15.26
2023-04-22T11:22:34.396Z,15.32
2023-04-22T11:25:05.073Z,15.48
2023-04-22T11:27:32.395Z,15.60
2023-04-22T11:30:19.281Z,15.62
2023-04-22T11:32:50.790Z,15.66
2023-04-22T11:35:27.038Z,15.85
2023-04-22T11:37:56.007Z,15.98
2023-04-22T11:40:31.262Z,16.08
2023-04-22T11:43:01.753Z,16.12
2023-04-22T11:45:30.029Z,16.28
2023-04-22T11:47:56.835Z,16.24
2023-04-22T11:50:26.803Z,16.29
2023-04-22T11:53:03.529Z,16.45
2023-04-22T11:55:32.651Z,16.56
2023-04-22T11:58:10.291Z,16.52
2023-04-22T12:00:40.787Z,16.65
2023-04-22T12:03:15.137Z,16.56
2023-04-22T12:05:49.892Z,16.75
2023-04-22T12:08:23.134Z,16.76
2023-04-22T12:10:57.595Z,16.74
2023-04-22T12:13:30.265Z,16.71
2023-04-22T12:16:01.242Z,16.58
2023-04-22T12:18:35.210Z,16.54
2023-04-22T12:21:04.908Z,16.46
2023-04-22T12:23:52.332Z,16.33
2023-04-22T12:26:27.609Z,16.24
2023-04-22T12:28:56.057Z,16.57
2023-04-22T12:31:22.768Z,16.66
2023-04-22T12:33:53.923Z,16.51
2023-04-22T12:36:20.950Z,16.30
2023-04-22T12:38:50.184Z,16.27
2023-04-22T12:41:16.654Z,16.27
2023-04-22T12:43:43.242Z,16.20
2023-04-22T12:46:10.494Z,16.27
2023-04-22T12:48:37.746Z,16.46
2023-04-22T12:51:05.602Z,16.33
2023-04-22T12:53:32.244Z,16.41
2023-04-22T12:55:59.130Z,16.25
2023-04-22T12:58:26.251Z,16.30
2023-04-22T13:00:52.737Z,16.14
2023-04-22T13:03:22.316Z,16.05
2023-04-22T13:05:52.955Z,15.99
2023-04-22T13:08:21.477Z,15.88
2023-04-22T13:10:50.497Z,15.75
2023-04-22T13:13:18.998Z,15.72
2023-04-22T13:15:54.383Z,15.61
2023-04-22T13:18:23.031Z,15.43
2023-04-22T13:24:02.316Z,15.36
2023-04-22T13:26:28.902Z,15.36
2023-04-22T13:28:55.393Z,15.61
2023-04-22T13:31:22.317Z,15.70
2023-04-22T13:33:51.181Z,15.66
2023-04-22T13:36:54.015Z,15.48
2023-04-22T13:39:24.734Z,15.51
2023-04-22T13:41:54.132Z,15.70
2023-04-22T13:44:24.167Z,15.73
2023-04-22T13:47:08.626Z,15.62
2023-04-22T13:49:38.469Z,15.21
2023-04-22T13:52:05.097Z,15.52
2023-04-22T13:54:31.645Z,15.51
2023-04-22T13:56:58.220Z,15.44
2023-04-22T13:59:24.712Z,15.41
2023-04-22T14:01:54.486Z,15.64
2023-04-22T14:04:24.043Z,15.70
2023-04-22T14:06:55.327Z,15.86
2023-04-22T14:09:21.927Z,15.86
2023-04-22T14:11:50.948Z,15.91
2023-04-22T14:14:17.397Z,15.97
2023-04-22T14:16:43.925Z,15.83
2023-04-22T14:19:10.424Z,15.32
2023-04-22T14:21:36.957Z,15.37
2023-04-22T14:24:03.668Z,15.37
2023-04-22T14:26:32.589Z,15.36
2023-04-22T14:28:59.450Z,15.27
2023-04-22T14:34:23.366Z,15.25
2023-04-22T14:36:52.939Z,15.44
2023-04-22T14:39:22.143Z,15.49
2023-04-22T14:41:51.196Z,15.18
2023-04-22T14:44:17.756Z,15.30
2023-04-22T14:46:45.231Z,15.24
2023-04-22T14:49:11.715Z,15.22
2023-04-22T14:51:38.212Z,15.09
2023-04-22T14:54:04.909Z,15.08
2023-04-22T14:56:31.468Z,15.11
2023-04-22T14:58:57.934Z,15.07
2023-04-22T15:01:24.474Z,15.08
2023-04-22T15:03:54.214Z,14.95
2023-04-22T15:06:24.124Z,14.85
2023-04-22T15:08:54.006Z,14.55
2023-04-22T15:11:22.305Z,14.27
2023-04-22T15:13:51.625Z,14.10
2023-04-22T15:16:20.894Z,14.05
2023-04-22T15:18:47.419Z,13.74
2023-04-22T15:21:13.939Z,13.74
2023-04-22T15:23:40.950Z,13.56
2023-04-22T15:26:07.850Z,13.42
2023-04-22T15:28:34.365Z,13.62
2023-04-22T15:31:01.523Z,13.64
2023-04-22T15:33:28.026Z,13.70
2023-04-22T15:35:54.476Z,13.74
2023-04-22T15:38:24.729Z,13.67
2023-04-22T15:40:51.660Z,13.75
2023-04-22T15:43:18.134Z,13.67
2023-04-22T15:45:44.662Z,13.59
2023-04-22T15:48:11.396Z,13.63
2023-04-22T15:50:40.069Z,13.54
2023-04-22T15:53:06.871Z,13.53
2023-04-22T15:55:33.322Z,13.43
2023-04-22T15:57:59.806Z,13.32
2023-04-22T16:00:26.394Z,13.43
2023-04-22T16:02:55.398Z,13.43
2023-04-22T16:05:24.713Z,13.57
2023-04-22T16:07:54.381Z,13.50
2023-04-22T16:10:21.703Z,13.49
2023-04-22T16:12:51.620Z,13.89
2023-04-22T16:15:18.208Z,14.02
2023-04-22T16:17:45.042Z,14.04
2023-04-22T16:20:12.116Z,14.17
2023-04-22T16:22:38.585Z,14.07
2023-04-22T16:25:05.863Z,14.01
2023-04-22T16:27:32.596Z,14.02
2023-04-22T16:30:01.179Z,13.96
2023-04-22T16:32:29.143Z,13.96
2023-04-22T16:34:56.082Z,13.98
2023-04-22T16:37:22.753Z,14.06
2023-04-22T16:39:51.384Z,14.09
2023-04-22T16:42:17.964Z,14.05
2023-04-22T16:44:44.783Z,14.07
2023-04-22T16:47:11.429Z,14.13
2023-04-22T16:49:37.964Z,14.09
2023-04-22T16:52:04.611Z,13.89
2023-04-22T16:54:31.052Z,13.96
2023-04-22T16:56:57.542Z,13.93
2023-04-22T16:59:24.068Z,13.94
2023-04-22T17:01:51.501Z,13.97
2023-04-22T17:04:18.245Z,13.85
2023-04-22T17:06:45.746Z,14.23
2023-04-22T17:09:12.254Z,14.16
2023-04-22T17:11:38.955Z,14.13
2023-04-22T17:14:05.749Z,14.11
2023-04-22T17:16:32.374Z,13.93
2023-04-22T17:18:58.791Z,13.89
2023-04-22T17:21:26.188Z,13.83
2023-04-22T17:23:52.727Z,13.74
2023-04-22T17:26:19.219Z,13.69
2023-04-22T17:28:46.479Z,13.70
2023-04-22T17:31:13.295Z,13.53
2023-04-22T17:33:40.901Z,13.43
2023-04-22T17:36:07.502Z,13.56
2023-04-22T17:38:34.029Z,13.59
2023-04-22T17:41:00.627Z,13.58
2023-04-22T17:43:27.118Z,13.47
2023-04-22T17:45:53.750Z,13.58
2023-04-22T17:48:22.896Z,13.64
2023-04-22T17:50:49.759Z,13.61
2023-04-22T17:53:16.942Z,13.56
2023-04-22T17:55:43.740Z,13.51
2023-04-22T17:58:10.593Z,13.47
2023-04-22T18:00:59.311Z,13.48
2023-04-22T18:03:26.487Z,13.31
2023-04-22T18:05:56.224Z,13.34
2023-04-22T18:08:41.513Z,13.24
2023-04-22T18:11:08.330Z,13.10
2023-04-22T18:13:34.860Z,13.34
2023-04-22T18:16:03.596Z,13.27
2023-04-22T18:18:30.108Z,13.31
2023-04-22T18:21:00.686Z,13.21
2023-04-22T18:23:28.692Z,13.05
2023-04-22T18:25:55.885Z,13.11
2023-04-22T18:28:34.102Z,12.91
2023-04-22T18:31:03.356Z,12.71
2023-04-22T18:33:30.283Z,12.99
2023-04-22T18:35:57.137Z,12.84
2023-04-22T18:38:23.693Z,12.86
2023-04-22T18:40:52.897Z,12.88
2023-04-22T18:43:19.565Z,12.93
2023-04-22T18:45:46.463Z,12.95
2023-04-22T18:48:13.073Z,12.94
2023-04-22T18:50:40.285Z,12.85
2023-04-22T18:53:06.768Z,12.99
2023-04-22T18:55:33.311Z,12.94
2023-04-22T18:57:59.797Z,12.95
2023-04-22T19:00:26.821Z,12.85
2023-04-22T19:02:53.765Z,12.85
2023-04-22T19:05:24.246Z,13.01
2023-04-22T19:07:52.107Z,13.00
2023-04-22T19:10:18.876Z,13.05
2023-04-22T19:12:45.513Z,12.79
2023-04-22T19:15:12.130Z,12.97
2023-04-22T19:17:38.810Z,12.88
2023-04-22T19:20:06.148Z,12.87
2023-04-22T19:22:32.736Z,12.85
2023-04-22T19:24:59.244Z,12.75
2023-04-22T19:27:25.840Z,12.83
2023-04-22T19:29:55.512Z,12.80
2023-04-22T19:32:24.850Z,12.76
2023-04-22T19:34:55.094Z,12.57
2023-04-22T19:37:26.015Z,12.71
2023-04-22T19:39:56.044Z,12.67
2023-04-22T19:42:25.179Z,12.61
2023-04-22T19:44:55.379Z,12.67
2023-04-22T19:47:23.707Z,12.71
2023-04-22T19:49:53.007Z,12.67
2023-04-22T19:52:25.005Z,12.68
2023-04-22T19:55:00.950Z,12.66
2023-04-22T19:57:27.620Z,12.52
2023-04-22T19:59:54.969Z,12.67
2023-04-22T20:02:25.931Z,12.48
2023-04-22T20:04:55.666Z,12.53
2023-04-22T20:09:56.280Z,12.34
2023-04-22T20:12:28.886Z,12.14
2023-04-22T20:14:59.821Z,12.25
2023-04-22T20:17:27.153Z,12.21
2023-04-22T20:19:56.458Z,12.24
2023-04-22T20:22:26.333Z,12.27
2023-04-22T20:25:04.054Z,12.27
2023-04-22T20:27:31.793Z,12.24
2023-04-22T20:29:59.689Z,12.30
2023-04-22T20:32:27.856Z,12.24
2023-04-22T20:34:55.918Z,12.22
2023-04-22T20:37:24.889Z,12.20
2023-04-22T20:39:53.888Z,12.10
2023-04-22T20:42:24.322Z,12.22
2023-04-22T20:44:51.520Z,12.19
2023-04-22T20:47:18.527Z,11.93
2023-04-22T20:49:45.064Z,12.01
2023-04-22T20:52:12.490Z,11.95
2023-04-22T20:54:39.963Z,12.00
2023-04-22T20:57:07.518Z,11.89
2023-04-22T20:59:34.399Z,11.84
2023-04-22T21:02:01.206Z,11.81
2023-04-22T21:04:28.076Z,11.79
2023-04-22T21:07:00.984Z,11.90
2023-04-22T21:09:27.940Z,11.90
2023-04-22T21:11:58.131Z,12.02
2023-04-22T21:14:27.889Z,11.89
2023-04-22T21:17:13.406Z,11.91
2023-04-22T21:19:46.844Z,11.79
2023-04-22T21:22:13.606Z,11.87
2023-04-22T21:24:40.842Z,11.88
2023-04-22T21:27:08.323Z,11.77
2023-04-22T21:29:35.261Z,11.74
2023-04-22T21:32:09.247Z,11.79
2023-04-22T21:34:37.154Z,11.77
2023-04-22T21:37:05.209Z,11.75
2023-04-22T21:39:31.684Z,11.66
2023-04-22T21:41:58.796Z,11.60
2023-04-22T21:44:28.071Z,11.45
2023-04-22T21:46:56.963Z,11.31
2023-04-22T21:49:23.442Z,11.31
2023-04-22T21:51:50.047Z,11.27
2023-04-22T21:54:16.671Z,11.33
2023-04-22T21:56:44.058Z,11.32
2023-04-22T21:59:10.714Z,11.41
2023-04-22T22:01:37.194Z,11.37
2023-04-22T22:04:03.852Z,11.32
2023-04-22T22:06:30.880Z,11.20
2023-04-22T22:09:00.408Z,11.03
2023-04-22T22:11:31.301Z,11.02
2023-04-22T22:13:59.100Z,11.07
2023-04-22T22:16:25.745Z,11.00
2023-04-22T22:18:52.753Z,10.96
2023-04-22T22:21:19.305Z,10.95
2023-04-22T22:23:45.792Z,11.13
2023-04-22T22:26:12.401Z,11.12
2023-04-22T22:28:39.443Z,11.24
2023-04-22T22:31:05.961Z,11.13
2023-04-22T22:33:32.476Z,11.07
2023-04-22T22:36:01.993Z,11.07
2023-04-22T22:38:31.960Z,10.94
2023-04-22T22:41:01.801Z,10.83
2023-04-22T22:43:31.546Z,10.84
2023-04-22T22:46:00.250Z,10.82
2023-04-22T22:48:26.882Z,10.80
2023-04-22T22:50:53.435Z,10.88
2023-04-22T22:53:21.151Z,10.84
2023-04-22T22:55:47.712Z,10.81
2023-04-22T22:58:14.221Z,10.72
2023-04-22T23:00:40.712Z,10.82
2023-04-22T23:03:07.472Z,10.78
2023-04-22T23:05:34.012Z,10.68
2023-04-22T23:08:03.932Z,10.55
2023-04-22T23:10:33.586Z,10.47
2023-04-22T23:13:03.657Z,10.49
2023-04-22T23:15:34.169Z,10.46
2023-04-22T23:18:03.475Z,10.51
2023-04-22T23:20:33.773Z,10.44
2023-04-22T23:23:04.107Z,10.59
2023-04-22T23:25:33.727Z,10.45
2023-04-22T23:28:04.551Z,10.37
2023-04-22T23:30:34.234Z,10.29
2023-04-22T23:33:03.875Z,10.19
2023-04-22T23:35:34.947Z,10.20
2023-04-22T23:38:06.632Z,10.23
2023-04-22T23:40:36.200Z,10.13
2023-04-22T23:43:05.658Z,10.17
2023-04-22T23:45:35.719Z,10.14
2023-04-22T23:48:05.258Z,10.07
2023-04-22T23:50:34.241Z,10.09
2023-04-22T23:53:00.684Z,10.16
2023-04-22T23:55:27.988Z,10.08
2023-04-22T23:57:55.721Z,10.01
